OIAA METAR and TAF | Updated Today

OIAA METAR

Abadan Airport

Observation time: 13 min. ago

OIAA 292000Z 28004KT CAVOK 24/08 Q1006

Need help? Read our tutorial on how to read METARs or read the parsed version below.

Abadan Airport (OIAA) METAR

  • Weather conditions on Thu, 29 Sep 2022 20:00:00 +0000 (13 min. ago):
  • Present conditions: Dry
  • Clouds: Clear skies
  • Visibility: Greater than 10 km
  • Wind: 280 degrees at 4 knots
  • Temperature: 24 celsius
  • Dew point: 8 celsius
  • Pressure: 1006 millibars
  • Remarks: None


Useful to know...

OIAA TAF

Abadan Airport

TAF OIAA 291730Z 2918/3024 28008KT 7000 NSC TEMPO 3000/3005 5000 HZ TEMPO 3009/3015 32012KT
Observation time: 2:43 hr. ago
Need help? Read our tutorial on how to read TAFs or read the parsed version below.

Parsed version of TAF for Abadan Airport (OIAA)

  • From 29 September at 18:00 UTC, to day 30 of the month at 24:00 UTC
  • Clouds: No significant clouds are observed
  • Visibility: 7000 meters
  • Wind: 280 degrees at 8
  • Expected to arise temporarily, from 30 September at 00:00 UTC, to day 30 of the month at 05:00 UTC
  • Visibility: 5000 meters
  • Other: Haze
  • Expected to arise temporarily, from 30 September at 09:00 UTC, to day 30 of the month at 15:00 UTC
  • Wind: 320 degrees at 12